createdAt,value
2017-11-25T00:00:51.065Z,31.8
2017-11-25T00:01:48.938Z,31.8
2017-11-25T00:02:51.179Z,31.8
2017-11-25T00:03:51.197Z,31.8
2017-11-25T00:04:49.182Z,31.8
2017-11-25T00:05:51.123Z,31.8
2017-11-25T00:06:51.137Z,31.8
2017-11-25T00:07:49.430Z,31.8
2017-11-25T00:08:49.305Z,31.8
2017-11-25T00:09:51.277Z,31.8
2017-11-25T00:10:51.355Z,31.8
2017-11-25T00:11:49.691Z,31.8
2017-11-25T00:12:51.446Z,31.8
2017-11-25T00:13:49.621Z,31.8
2017-11-25T00:14:51.853Z,31.8
2017-11-25T00:15:51.869Z,31.8
2017-11-25T00:16:49.717Z,31.8
2017-11-25T00:17:51.682Z,31.8
2017-11-25T00:18:49.990Z,31.8
2017-11-25T00:19:52.030Z,31.8
2017-11-25T00:20:50.008Z,31.8
2017-11-25T00:21:52.160Z,31.8
2017-11-25T00:22:52.183Z,31.8
2017-11-25T00:23:50.110Z,31.8
2017-11-25T00:24:52.025Z,31.8
2017-11-25T00:25:50.322Z,31.8
2017-11-25T00:26:50.375Z,31.8
2017-11-25T00:27:52.116Z,31.8
2017-11-25T00:28:50.270Z,31.8
2017-11-25T00:29:50.487Z,31.8
2017-11-25T00:30:52.537Z,31.8
2017-11-25T00:31:50.408Z,31.8
2017-11-25T00:32:50.647Z,31.8
2017-11-25T00:33:50.472Z,31.8
2017-11-25T00:34:50.693Z,31.8
2017-11-25T00:35:52.497Z,31.8
2017-11-25T00:36:52.809Z,31.8
2017-11-25T00:37:52.816Z,31.8
2017-11-25T00:38:52.868Z,31.8
2017-11-25T00:39:52.735Z,31.8
2017-11-25T00:40:52.788Z,31.8
2017-11-25T00:41:51.062Z,31.8
2017-11-25T00:42:53.106Z,31.8
2017-11-25T00:43:51.202Z,31.8
2017-11-25T00:44:53.173Z,31.8
2017-11-25T00:45:51.161Z,31.8
2017-11-25T00:46:51.183Z,31.8
2017-11-25T00:47:51.391Z,31.8
2017-11-25T00:48:51.242Z,31.8
2017-11-25T00:49:53.177Z,31.8
2017-11-25T00:50:53.514Z,31.8
2017-11-25T00:51:51.418Z,31.8
2017-11-25T00:52:51.520Z,31.8
2017-11-25T00:53:53.455Z,31.8
2017-11-25T00:54:53.710Z,31.8
2017-11-25T00:55:51.624Z,31.8
2017-11-25T00:56:53.792Z,31.8
2017-11-25T00:57:53.563Z,31.8
2017-11-25T00:58:51.841Z,31.8
2017-11-25T00:59:51.727Z,31.8
2017-11-25T01:00:53.921Z,31.8
2017-11-25T01:01:51.852Z,31.8
2017-11-25T01:02:53.790Z,31.8
2017-11-25T01:03:54.031Z,31.8
2017-11-25T01:04:54.113Z,31.8
2017-11-25T01:05:54.018Z,31.8
2017-11-25T01:06:54.048Z,31.8
2017-11-25T01:07:52.224Z,31.8
2017-11-25T01:08:52.432Z,31.8
2017-11-25T01:09:54.377Z,31.8
2017-11-25T01:10:52.517Z,31.8
2017-11-25T01:11:52.632Z,31.8
2017-11-25T01:12:52.475Z,31.8
2017-11-25T01:13:54.720Z,31.8
2017-11-25T01:14:54.482Z,31.8
2017-11-25T01:15:52.585Z,31.8
2017-11-25T01:16:52.613Z,31.8
2017-11-25T01:17:54.556Z,31.8
2017-11-25T01:18:52.717Z,31.8
2017-11-25T01:19:54.705Z,31.7
2017-11-25T01:20:52.988Z,31.8
2017-11-25T01:21:53.068Z,31.7
2017-11-25T01:22:55.571Z,31.7
2017-11-25T01:23:55.145Z,31.7
2017-11-25T01:24:53.180Z,31.7
2017-11-25T01:25:54.947Z,31.8
2017-11-25T01:26:55.230Z,31.8
2017-11-25T01:27:53.324Z,31.8
2017-11-25T01:28:53.176Z,31.7
2017-11-25T01:29:55.153Z,31.8
2017-11-25T01:30:55.206Z,31.7
2017-11-25T01:31:53.544Z,31.8
2017-11-25T01:32:53.556Z,31.8
2017-11-25T01:33:53.660Z,31.7
2017-11-25T01:34:53.464Z,31.7
2017-11-25T01:35:53.470Z,31.7
2017-11-25T01:36:53.623Z,31.7
2017-11-25T01:37:53.902Z,31.8
2017-11-25T01:38:55.608Z,31.7
2017-11-25T01:39:53.739Z,31.8
2017-11-25T01:40:53.786Z,31.8
2017-11-25T01:41:54.101Z,31.8
2017-11-25T01:42:56.060Z,31.8
2017-11-25T01:43:54.011Z,31.8
2017-11-25T01:44:56.092Z,31.7
2017-11-25T01:45:56.183Z,31.8
2017-11-25T01:46:54.319Z,31.8
2017-11-25T01:47:54.139Z,31.8
2017-11-25T01:48:56.282Z,31.8
2017-11-25T01:49:56.122Z,31.8
2017-11-25T01:50:56.079Z,31.8
2017-11-25T01:51:56.130Z,31.7
2017-11-25T01:52:54.277Z,31.8
2017-11-25T01:53:56.294Z,31.7
2017-11-25T01:54:54.547Z,31.7
2017-11-25T01:55:56.567Z,31.7
2017-11-25T01:56:54.479Z,31.7
2017-11-25T01:57:56.408Z,31.7
2017-11-25T01:58:54.662Z,31.7
2017-11-25T01:59:54.718Z,31.7
2017-11-25T02:00:55.051Z,31.7
2017-11-25T02:01:54.845Z,31.7
2017-11-25T02:02:56.740Z,31.7
2017-11-25T02:03:56.677Z,31.7
2017-11-25T02:04:56.917Z,31.7
2017-11-25T02:05:57.002Z,31.7
2017-11-25T02:06:54.969Z,31.8
2017-11-25T02:07:55.225Z,31.8
2017-11-25T02:08:56.975Z,31.7
2017-11-25T02:09:57.040Z,31.7
2017-11-25T02:10:57.126Z,31.8
2017-11-25T02:11:57.179Z,31.8
2017-11-25T02:12:55.342Z,31.7
2017-11-25T02:13:55.628Z,31.8
2017-11-25T02:14:55.445Z,31.8
2017-11-25T02:15:57.348Z,31.8
2017-11-25T02:16:55.657Z,31.7
2017-11-25T02:17:57.412Z,31.7
2017-11-25T02:18:55.666Z,31.7
2017-11-25T02:19:57.684Z,31.7
2017-11-25T02:20:55.595Z,31.7
2017-11-25T02:21:55.883Z,31.7
2017-11-25T02:22:57.629Z,31.7
2017-11-25T02:23:57.903Z,31.7
2017-11-25T02:24:57.706Z,31.7
2017-11-25T02:25:55.994Z,31.7
2017-11-25T02:26:56.081Z,31.7
2017-11-25T02:27:58.164Z,31.8
2017-11-25T02:28:58.178Z,31.7
2017-11-25T02:29:58.055Z,31.7
2017-11-25T02:30:58.125Z,31.7
2017-11-25T02:31:58.215Z,31.7
2017-11-25T02:32:58.312Z,31.7
2017-11-25T02:33:58.353Z,31.7
2017-11-25T02:34:58.406Z,31.7
2017-11-25T02:35:56.518Z,31.7
2017-11-25T02:36:58.480Z,31.7
2017-11-25T02:37:58.580Z,31.7
2017-11-25T02:38:56.849Z,31.7
2017-11-25T02:39:56.771Z,31.7
2017-11-25T02:40:58.943Z,31.7
2017-11-25T02:41:59.038Z,31.7
2017-11-25T02:42:57.140Z,31.7
2017-11-25T02:43:57.064Z,31.7
2017-11-25T02:44:59.286Z,31.7
2017-11-25T02:45:57.395Z,31.7
2017-11-25T02:46:59.168Z,31.7
2017-11-25T02:47:59.156Z,31.7
2017-11-25T02:48:59.168Z,31.7
2017-11-25T02:49:57.318Z,31.7
2017-11-25T02:50:59.229Z,31.7
2017-11-25T02:51:59.489Z,31.7
2017-11-25T02:52:59.259Z,31.7
2017-11-25T02:53:57.593Z,31.7
2017-11-25T02:54:59.532Z,31.7
2017-11-25T02:55:59.393Z,31.7
2017-11-25T02:56:59.437Z,31.7
2017-11-25T02:57:59.456Z,31.7
2017-11-25T02:58:59.475Z,31.7
2017-11-25T02:59:57.631Z,31.7
2017-11-25T03:00:57.657Z,31.7
2017-11-25T03:01:57.665Z,31.7
2017-11-25T03:02:57.780Z,31.7
2017-11-25T03:03:59.776Z,31.7
2017-11-25T03:04:57.877Z,31.7
2017-11-25T03:05:57.956Z,31.7
2017-11-25T03:07:00.129Z,31.7
2017-11-25T03:07:58.244Z,31.7
2017-11-25T03:08:59.986Z,31.7
2017-11-25T03:10:00.087Z,31.7
2017-11-25T03:11:00.307Z,31.7
2017-11-25T03:11:58.408Z,31.7
2017-11-25T03:13:00.387Z,31.7
2017-11-25T03:14:00.270Z,31.7
2017-11-25T03:15:00.335Z,31.7
2017-11-25T03:16:00.449Z,31.7
2017-11-25T03:16:58.716Z,31.7
2017-11-25T03:17:58.578Z,31.7
2017-11-25T03:18:58.599Z,31.7
2017-11-25T03:20:00.803Z,31.7
2017-11-25T03:21:00.632Z,31.7
2017-11-25T03:21:59.083Z,31.7
2017-11-25T03:23:00.685Z,31.7
2017-11-25T03:24:00.756Z,31.7
2017-11-25T03:24:59.083Z,31.7
2017-11-25T03:25:58.987Z,31.7
2017-11-25T03:26:59.056Z,31.7
2017-11-25T03:27:59.056Z,31.7
2017-11-25T03:28:59.266Z,31.7
2017-11-25T03:30:01.025Z,31.7
2017-11-25T03:31:01.101Z,31.7
2017-11-25T03:31:59.278Z,31.7
2017-11-25T03:32:59.282Z,31.7
2017-11-25T03:34:01.484Z,31.7
2017-11-25T03:34:59.347Z,31.7
2017-11-25T03:35:59.405Z,31.7
2017-11-25T03:37:01.624Z,31.7
2017-11-25T03:37:59.779Z,31.7
2017-11-25T03:39:01.824Z,31.7
2017-11-25T03:40:01.825Z,31.7
2017-11-25T03:40:59.794Z,31.7
2017-11-25T03:41:59.804Z,31.7
2017-11-25T03:43:01.965Z,31.7
2017-11-25T03:44:00.048Z,31.7
2017-11-25T03:45:00.145Z,31.7
2017-11-25T03:46:01.928Z,31.7
2017-11-25T03:46:59.999Z,31.7
2017-11-25T03:48:00.275Z,31.7
2017-11-25T03:49:02.258Z,31.7
2017-11-25T03:50:00.362Z,31.7
2017-11-25T03:51:02.116Z,31.7
2017-11-25T03:52:00.467Z,31.7
2017-11-25T03:53:00.369Z,31.7
2017-11-25T03:54:00.604Z,31.7
2017-11-25T03:55:00.443Z,31.7
2017-11-25T03:56:00.457Z,31.7
2017-11-25T03:57:02.593Z,31.7
2017-11-25T03:58:00.548Z,31.7
2017-11-25T03:59:02.700Z,31.7
2017-11-25T04:00:02.550Z,31.6
2017-11-25T04:01:02.881Z,31.6
2017-11-25T04:02:02.668Z,31.6
2017-11-25T04:03:02.752Z,31.6
2017-11-25T04:04:02.814Z,31.6
2017-11-25T04:05:02.884Z,31.6
2017-11-25T04:06:02.908Z,31.6
2017-11-25T04:07:03.084Z,31.6
2017-11-25T04:08:03.292Z,31.6
2017-11-25T04:09:01.353Z,31.6
2017-11-25T04:10:03.338Z,31.6
2017-11-25T04:11:03.205Z,31.6
2017-11-25T04:12:01.325Z,31.6
2017-11-25T04:13:01.541Z,31.6
2017-11-25T04:14:03.273Z,31.6
2017-11-25T04:15:04.377Z,31.6
2017-11-25T04:16:03.395Z,31.6
2017-11-25T04:17:03.655Z,31.6
2017-11-25T04:18:03.749Z,31.6
2017-11-25T04:19:03.855Z,31.6
2017-11-25T04:20:03.949Z,31.6
2017-11-25T04:21:02.006Z,31.6
2017-11-25T04:22:01.903Z,31.6
2017-11-25T04:23:04.035Z,31.6
2017-11-25T04:24:01.975Z,31.6
2017-11-25T04:25:01.989Z,31.6
2017-11-25T04:26:02.223Z,31.6
2017-11-25T04:27:04.162Z,31.6
2017-11-25T04:28:04.204Z,31.6
2017-11-25T04:29:02.159Z,31.6
2017-11-25T04:30:04.133Z,31.6
2017-11-25T04:31:04.179Z,31.6
2017-11-25T04:32:02.271Z,31.6
2017-11-25T04:33:04.222Z,31.6
2017-11-25T04:34:04.277Z,31.6
2017-11-25T04:35:04.515Z,31.6
2017-11-25T04:36:04.355Z,31.6
2017-11-25T04:37:04.396Z,31.5
2017-11-25T04:38:02.729Z,31.6
2017-11-25T04:39:04.510Z,31.6
2017-11-25T04:40:02.811Z,31.6
2017-11-25T04:41:02.827Z,31.6
2017-11-25T04:42:02.709Z,31.6
2017-11-25T04:43:02.942Z,31.6
2017-11-25T04:44:02.748Z,31.6
2017-11-25T04:45:03.050Z,31.6
2017-11-25T04:46:04.804Z,31.6
2017-11-25T04:47:05.111Z,31.6
2017-11-25T04:48:03.018Z,31.6
2017-11-25T04:49:03.040Z,31.6
2017-11-25T04:50:04.965Z,31.6
2017-11-25T04:51:03.128Z,31.6
2017-11-25T04:52:03.243Z,31.6
2017-11-25T04:53:03.295Z,31.5
2017-11-25T04:54:05.431Z,31.5
2017-11-25T04:55:03.538Z,31.5
2017-11-25T04:56:05.344Z,31.5
2017-11-25T04:57:05.359Z,31.5
2017-11-25T04:58:05.582Z,31.5
2017-11-25T04:59:05.427Z,31.5
2017-11-25T05:00:03.561Z,31.5
2017-11-25T05:01:03.565Z,31.5
2017-11-25T05:02:03.718Z,31.5
2017-11-25T05:03:05.792Z,31.5
2017-11-25T05:04:03.731Z,31.5
2017-11-25T05:05:05.920Z,31.5
2017-11-25T05:06:05.725Z,31.5
2017-11-25T05:07:05.969Z,31.5
2017-11-25T05:08:03.890Z,31.5
2017-11-25T05:09:05.822Z,31.5
2017-11-25T05:10:06.076Z,31.5
2017-11-25T05:11:06.086Z,31.5
2017-11-25T05:12:06.142Z,31.5
2017-11-25T05:13:06.223Z,31.5
2017-11-25T05:14:04.059Z,31.5
2017-11-25T05:15:06.293Z,31.5
2017-11-25T05:16:06.319Z,31.5
2017-11-25T05:17:06.348Z,31.5
2017-11-25T05:18:04.471Z,31.5
2017-11-25T05:19:04.291Z,31.5
2017-11-25T05:20:06.417Z,31.5
2017-11-25T05:21:06.497Z,31.5
2017-11-25T05:22:06.318Z,31.5
2017-11-25T05:23:04.428Z,31.5
2017-11-25T05:24:06.354Z,31.5
2017-11-25T05:25:06.710Z,31.5
2017-11-25T05:26:06.490Z,31.5
2017-11-25T05:27:06.646Z,31.5
2017-11-25T05:28:06.898Z,31.5
2017-11-25T05:29:06.944Z,31.5
2017-11-25T05:30:10.336Z,31.5
2017-11-25T05:31:07.013Z,31.5
2017-11-25T05:32:04.912Z,31.5
2017-11-25T05:33:05.105Z,31.5
2017-11-25T05:34:07.254Z,31.5
2017-11-25T05:35:07.331Z,31.5
2017-11-25T05:36:05.282Z,31.5
2017-11-25T05:37:05.171Z,31.5
2017-11-25T05:38:05.198Z,31.5
2017-11-25T05:39:05.487Z,31.5
2017-11-25T05:40:07.464Z,31.5
2017-11-25T05:41:07.469Z,31.5
2017-11-25T05:42:05.390Z,31.5
2017-11-25T05:43:07.531Z,31.5
2017-11-25T05:44:07.560Z,31.5
2017-11-25T05:45:05.677Z,31.5
2017-11-25T05:46:05.801Z,31.5
2017-11-25T05:47:07.556Z,31.5
2017-11-25T05:48:07.598Z,31.5
2017-11-25T05:49:05.897Z,31.5
2017-11-25T05:50:05.703Z,31.5
2017-11-25T05:51:05.928Z,31.5
2017-11-25T05:52:07.882Z,31.5
2017-11-25T05:53:05.811Z,31.5
2017-11-25T05:54:06.021Z,31.5
2017-11-25T05:55:07.780Z,31.5
2017-11-25T05:56:05.853Z,31.5
2017-11-25T05:57:06.045Z,31.5
2017-11-25T05:58:07.882Z,31.5
2017-11-25T05:59:07.922Z,31.5
2017-11-25T06:00:06.019Z,31.5
2017-11-25T06:01:08.037Z,31.5
2017-11-25T06:02:08.285Z,31.5
2017-11-25T06:03:08.125Z,31.5
2017-11-25T06:04:08.178Z,31.5
2017-11-25T06:05:08.162Z,31.5
2017-11-25T06:06:06.291Z,31.5
2017-11-25T06:07:08.421Z,31.5
2017-11-25T06:08:08.262Z,31.5
2017-11-25T06:09:08.566Z,31.5
2017-11-25T06:10:06.521Z,31.5
2017-11-25T06:11:08.680Z,31.5
2017-11-25T06:12:08.528Z,31.5
2017-11-25T06:13:06.831Z,31.5
2017-11-25T06:14:08.879Z,31.5
2017-11-25T06:15:08.716Z,31.5
2017-11-25T06:16:07.013Z,31.5
2017-11-25T06:17:09.024Z,31.5
2017-11-25T06:18:08.886Z,31.5
2017-11-25T06:19:07.015Z,31.5
2017-11-25T06:20:07.266Z,31.5
2017-11-25T06:21:07.124Z,31.5
2017-11-25T06:22:07.313Z,31.5
2017-11-25T06:23:09.312Z,31.5
2017-11-25T06:24:07.429Z,31.5
2017-11-25T06:25:09.507Z,31.5
2017-11-25T06:26:07.566Z,31.5
2017-11-25T06:27:09.373Z,31.5
2017-11-25T06:28:09.634Z,31.5
2017-11-25T06:29:13.038Z,31.5
2017-11-25T06:30:09.496Z,31.5
2017-11-25T06:31:09.526Z,31.4
2017-11-25T06:32:07.663Z,31.4
2017-11-25T06:33:07.878Z,31.5
2017-11-25T06:34:09.901Z,31.5
2017-11-25T06:35:07.859Z,31.4
2017-11-25T06:36:08.056Z,31.5
2017-11-25T06:37:10.042Z,31.5
2017-11-25T06:38:10.102Z,31.4
2017-11-25T06:39:08.210Z,31.4
2017-11-25T06:40:08.113Z,31.4
2017-11-25T06:41:10.261Z,31.4
2017-11-25T06:42:08.388Z,31.4
2017-11-25T06:43:08.220Z,31.5
2017-11-25T06:44:10.393Z,31.4
2017-11-25T06:45:10.438Z,31.4
2017-11-25T06:46:08.551Z,31.4
2017-11-25T06:47:10.319Z,31.4
2017-11-25T06:48:10.381Z,31.4
2017-11-25T06:49:08.753Z,31.4
2017-11-25T06:50:08.581Z,31.4
2017-11-25T06:51:10.534Z,31.4
2017-11-25T06:52:08.703Z,31.4
2017-11-25T06:53:10.868Z,31.4
2017-11-25T06:54:10.721Z,31.4
2017-11-25T06:55:08.989Z,31.4
2017-11-25T06:56:10.829Z,31.4
2017-11-25T06:57:11.054Z,31.4
2017-11-25T06:58:10.891Z,31.4
2017-11-25T06:59:09.038Z,31.4
2017-11-25T07:00:09.075Z,31.4
2017-11-25T07:01:09.087Z,31.4
2017-11-25T07:02:09.318Z,31.4
2017-11-25T07:03:09.323Z,31.4
2017-11-25T07:04:09.165Z,31.4
2017-11-25T07:05:09.466Z,31.4
2017-11-25T07:06:09.476Z,31.4
2017-11-25T07:07:09.374Z,31.4
2017-11-25T07:08:11.321Z,31.4
2017-11-25T07:09:09.420Z,31.4
2017-11-25T07:10:09.667Z,31.4
2017-11-25T07:11:09.663Z,31.4
2017-11-25T07:12:09.659Z,31.4
2017-11-25T07:13:09.822Z,31.4
2017-11-25T07:14:09.508Z,31.4
2017-11-25T07:15:09.549Z,31.4
2017-11-25T07:16:09.568Z,31.4
2017-11-25T07:17:11.754Z,31.4
2017-11-25T07:18:09.668Z,31.4
2017-11-25T07:19:09.877Z,31.4
2017-11-25T07:20:11.880Z,31.4
2017-11-25T07:21:09.768Z,31.4
2017-11-25T07:22:09.983Z,31.4
2017-11-25T07:23:11.944Z,31.4
2017-11-25T07:24:11.792Z,31.4
2017-11-25T07:25:10.099Z,31.4
2017-11-25T07:26:11.861Z,31.4
2017-11-25T07:27:10.013Z,31.4
2017-11-25T07:28:12.210Z,31.4
2017-11-25T07:29:10.078Z,31.4
2017-11-25T07:30:10.296Z,31.4
2017-11-25T07:31:10.324Z,31.4
2017-11-25T07:32:10.161Z,31.4
2017-11-25T07:33:10.402Z,31.4
2017-11-25T07:34:10.437Z,31.4
2017-11-25T07:35:10.552Z,31.4
2017-11-25T07:36:12.339Z,31.4
2017-11-25T07:37:10.456Z,31.4
2017-11-25T07:38:12.429Z,31.4
2017-11-25T07:39:12.489Z,31.4
2017-11-25T07:40:12.543Z,31.4
2017-11-25T07:41:12.595Z,31.4
2017-11-25T07:42:10.721Z,31.4
2017-11-25T07:43:10.953Z,31.4
2017-11-25T07:44:10.951Z,31.4
2017-11-25T07:45:12.945Z,31.4
2017-11-25T07:46:10.891Z,31.4
2017-11-25T07:47:11.110Z,31.4
2017-11-25T07:48:12.890Z,31.4
2017-11-25T07:49:11.188Z,31.4
2017-11-25T07:50:13.119Z,31.4
2017-11-25T07:51:13.199Z,31.4
2017-11-25T07:52:11.118Z,31.4
2017-11-25T07:53:13.038Z,31.4
2017-11-25T07:54:11.430Z,31.4
2017-11-25T07:55:11.301Z,31.4
2017-11-25T07:56:11.369Z,31.4
2017-11-25T07:57:13.586Z,31.4
2017-11-25T07:58:12.376Z,31.4
2017-11-25T07:59:13.579Z,31.4
2017-11-25T08:00:13.578Z,31.4
2017-11-25T08:01:11.489Z,31.3
2017-11-25T08:02:13.632Z,31.4
2017-11-25T08:03:13.491Z,31.3
2017-11-25T08:04:13.591Z,31.4
2017-11-25T08:05:11.707Z,31.3
2017-11-25T08:06:13.678Z,31.3
2017-11-25T08:07:11.929Z,31.3
2017-11-25T08:08:13.702Z,31.3
2017-11-25T08:09:12.006Z,31.3
2017-11-25T08:10:13.936Z,31.3
2017-11-25T08:11:13.795Z,31.3
2017-11-25T08:12:12.153Z,31.3
2017-11-25T08:13:12.012Z,31.3
2017-11-25T08:14:14.023Z,31.3
2017-11-25T08:15:14.301Z,31.3
2017-11-25T08:16:14.132Z,31.3
2017-11-25T08:17:14.437Z,31.3
2017-11-25T08:18:12.563Z,31.3
2017-11-25T08:19:12.626Z,31.3
2017-11-25T08:20:14.466Z,31.3
2017-11-25T08:21:14.710Z,31.3
2017-11-25T08:22:14.510Z,31.3
2017-11-25T08:23:14.833Z,31.3
2017-11-25T08:24:12.839Z,31.3
2017-11-25T08:25:14.633Z,31.3
2017-11-25T08:26:12.965Z,31.3
2017-11-25T08:27:12.811Z,31.3
2017-11-25T08:28:15.003Z,31.3
2017-11-25T08:29:14.857Z,31.3
2017-11-25T08:30:14.867Z,31.3
2017-11-25T08:31:14.917Z,31.3
2017-11-25T08:32:13.074Z,31.3
2017-11-25T08:33:13.101Z,31.3
2017-11-25T08:34:13.403Z,31.3
2017-11-25T08:35:13.329Z,31.3
2017-11-25T08:36:15.265Z,31.3
2017-11-25T08:37:15.345Z,31.3
2017-11-25T08:38:13.602Z,31.3
2017-11-25T08:39:13.405Z,31.3
2017-11-25T08:40:13.654Z,31.2
2017-11-25T08:41:15.451Z,31.3
2017-11-25T08:42:15.696Z,31.2
2017-11-25T08:43:15.718Z,31.2
2017-11-25T08:44:15.805Z,31.2
2017-11-25T08:45:13.658Z,31.2
2017-11-25T08:46:13.729Z,31.2
2017-11-25T08:47:13.767Z,31.2
2017-11-25T08:48:14.010Z,31.2
2017-11-25T08:49:13.851Z,31.2
2017-11-25T08:50:13.869Z,31.2
2017-11-25T08:51:14.067Z,31.2
2017-11-25T08:52:16.146Z,31.2
2017-11-25T08:53:13.998Z,31.2
2017-11-25T08:54:16.195Z,31.2
2017-11-25T08:55:14.128Z,31.2
2017-11-25T08:56:16.258Z,31.2
2017-11-25T08:57:16.371Z,31.2
2017-11-25T08:58:16.403Z,31.2
2017-11-25T08:59:14.292Z,31.2
2017-11-25T09:00:16.471Z,31.2
2017-11-25T09:01:16.542Z,31.2
2017-11-25T09:02:16.579Z,31.2
2017-11-25T09:03:16.629Z,31.2
2017-11-25T09:04:16.725Z,31.2
2017-11-25T09:05:14.853Z,31.2
2017-11-25T09:06:14.843Z,31.2
2017-11-25T09:07:16.898Z,31.2
2017-11-25T09:08:14.772Z,31.2
2017-11-25T09:09:14.959Z,31.2
2017-11-25T09:10:16.704Z,31.2
2017-11-25T09:11:16.961Z,31.2
2017-11-25T09:12:14.932Z,31.2
2017-11-25T09:13:16.907Z,31.2
2017-11-25T09:14:15.049Z,31.2
2017-11-25T09:15:17.281Z,31.2
2017-11-25T09:16:15.311Z,31.2
2017-11-25T09:17:15.218Z,31.2
2017-11-25T09:18:15.445Z,31.1
2017-11-25T09:19:15.315Z,31.2
2017-11-25T09:20:15.518Z,31.2
2017-11-25T09:21:15.509Z,31.2
2017-11-25T09:22:17.534Z,31.2
2017-11-25T09:23:15.489Z,31.2
2017-11-25T09:24:17.718Z,31.2
2017-11-25T09:25:15.555Z,31.2
2017-11-25T09:26:17.509Z,31.1
2017-11-25T09:27:15.834Z,31.1
2017-11-25T09:28:15.852Z,31.1
2017-11-25T09:29:17.599Z,31.1
2017-11-25T09:30:17.898Z,31.1
2017-11-25T09:31:15.765Z,31.1
2017-11-25T09:32:17.692Z,31.1
2017-11-25T09:33:17.705Z,31.1
2017-11-25T09:34:17.745Z,31.1
2017-11-25T09:35:15.900Z,31.2
2017-11-25T09:36:15.920Z,31.1
2017-11-25T09:37:16.172Z,31.1
2017-11-25T09:38:17.938Z,31.2
2017-11-25T09:39:18.182Z,31.1
2017-11-25T09:40:16.218Z,31.1
2017-11-25T09:41:18.180Z,31.1
2017-11-25T09:42:16.072Z,31.1
2017-11-25T09:43:18.022Z,31.1
2017-11-25T09:44:16.406Z,31.1
2017-11-25T09:45:16.456Z,31.1
2017-11-25T09:46:18.416Z,31.1
2017-11-25T09:47:16.325Z,31.1
2017-11-25T09:48:16.566Z,31.1
2017-11-25T09:49:18.321Z,31.1
2017-11-25T09:50:18.552Z,31.1
2017-11-25T09:51:16.662Z,31.1
2017-11-25T09:52:18.508Z,31.1
2017-11-25T09:53:18.696Z,31.1
2017-11-25T09:54:18.592Z,31.1
2017-11-25T09:55:18.647Z,31.1
2017-11-25T09:56:16.926Z,31.1
2017-11-25T09:57:16.957Z,31.1
2017-11-25T09:58:16.891Z,31.1
2017-11-25T09:59:16.984Z,31.1
2017-11-25T10:00:18.991Z,31.1
2017-11-25T10:01:19.196Z,31.1
2017-11-25T10:02:19.283Z,31.1
2017-11-25T10:03:19.279Z,31.1
2017-11-25T10:04:17.191Z,31.1
2017-11-25T10:05:19.425Z,31.1
2017-11-25T10:06:17.493Z,31.1
2017-11-25T10:07:17.531Z,31.1
2017-11-25T10:08:19.290Z,31.1
2017-11-25T10:09:17.468Z,31.1
2017-11-25T10:10:17.454Z,31.1
2017-11-25T10:11:17.505Z,31.1
2017-11-25T10:12:19.671Z,31.1
2017-11-25T10:13:19.512Z,31.1
2017-11-25T10:14:19.713Z,31.1
2017-11-25T10:15:19.502Z,31.1
2017-11-25T10:16:17.874Z,31.1
2017-11-25T10:17:17.972Z,31.1
2017-11-25T10:18:17.998Z,31.1
2017-11-25T10:19:18.027Z,31.1
2017-11-25T10:20:19.761Z,31.1
2017-11-25T10:21:20.105Z,31.1
2017-11-25T10:22:20.181Z,31.1
2017-11-25T10:23:18.266Z,31
2017-11-25T10:24:20.329Z,31.1
2017-11-25T10:25:18.471Z,31
2017-11-25T10:26:20.210Z,31.1
2017-11-25T10:27:20.307Z,31
2017-11-25T10:28:18.583Z,31
2017-11-25T10:29:18.406Z,31
2017-11-25T10:30:20.369Z,31
2017-11-25T10:31:20.674Z,31
2017-11-25T10:32:18.581Z,31
2017-11-25T10:33:18.839Z,31
2017-11-25T10:34:20.604Z,31
2017-11-25T10:35:20.705Z,30.9
2017-11-25T10:36:19.049Z,30.9
2017-11-25T10:37:21.046Z,30.9
2017-11-25T10:38:20.877Z,30.9
2017-11-25T10:39:20.923Z,30.9
2017-11-25T10:40:20.902Z,30.9
2017-11-25T10:41:21.174Z,30.9
2017-11-25T10:42:19.209Z,30.9
2017-11-25T10:43:21.077Z,30.9
2017-11-25T10:44:19.385Z,30.9
2017-11-25T10:45:21.427Z,30.9
2017-11-25T10:46:19.543Z,30.9
2017-11-25T10:47:21.490Z,30.9
2017-11-25T10:48:21.351Z,30.9
2017-11-25T10:49:21.382Z,30.9
2017-11-25T10:50:21.437Z,30.9
2017-11-25T10:51:21.469Z,30.9
2017-11-25T10:52:19.618Z,30.9
2017-11-25T10:53:21.617Z,30.9
2017-11-25T10:54:25.327Z,30.9
2017-11-25T10:55:21.617Z,30.9
2017-11-25T10:56:19.757Z,30.9
2017-11-25T10:57:21.996Z,30.9
2017-11-25T10:58:21.983Z,30.9
2017-11-25T10:59:22.351Z,30.9
2017-11-25T11:00:21.939Z,30.9
2017-11-25T11:01:20.081Z,30.9
2017-11-25T11:02:22.240Z,30.9
2017-11-25T11:03:22.302Z,30.9
2017-11-25T11:04:22.172Z,30.9
2017-11-25T11:05:20.290Z,30.9
2017-11-25T11:06:22.229Z,30.9
2017-11-25T11:07:20.557Z,30.8
2017-11-25T11:08:22.596Z,30.8
2017-11-25T11:09:20.715Z,30.8
2017-11-25T11:10:22.565Z,30.8
2017-11-25T11:11:20.869Z,30.8
2017-11-25T11:12:22.757Z,30.8
2017-11-25T11:13:21.047Z,30.8
2017-11-25T11:14:23.019Z,30.8
2017-11-25T11:15:21.132Z,30.7
2017-11-25T11:16:23.146Z,30.7
2017-11-25T11:17:21.255Z,30.7
2017-11-25T11:18:23.074Z,30.7
2017-11-25T11:19:21.392Z,30.6
2017-11-25T11:20:23.131Z,30.6
2017-11-25T11:21:21.406Z,30.6
2017-11-25T11:22:21.315Z,30.6
2017-11-25T11:23:23.285Z,30.6
2017-11-25T11:24:21.403Z,30.6
2017-11-25T11:25:23.352Z,30.6
2017-11-25T11:26:23.387Z,30.6
2017-11-25T11:27:23.410Z,30.6
2017-11-25T11:28:21.471Z,30.5
2017-11-25T11:29:23.652Z,30.6
2017-11-25T11:30:23.733Z,30.5
2017-11-25T11:31:21.623Z,30.5
2017-11-25T11:32:23.634Z,30.5
2017-11-25T11:33:23.890Z,30.5
2017-11-25T11:34:23.998Z,30.5
2017-11-25T11:35:22.063Z,30.5
2017-11-25T11:36:24.022Z,30.5
2017-11-25T11:37:22.122Z,30.4
2017-11-25T11:38:21.951Z,30.4
2017-11-25T11:39:23.940Z,30.4
2017-11-25T11:40:22.295Z,30.3
2017-11-25T11:41:22.170Z,30.2
2017-11-25T11:42:24.364Z,30.2
2017-11-25T11:43:22.452Z,30.1
2017-11-25T11:44:24.248Z,30.1
2017-11-25T11:45:24.478Z,30
2017-11-25T11:46:24.543Z,29.9
2017-11-25T11:47:22.669Z,29.9
2017-11-25T11:48:24.416Z,29.9
2017-11-25T11:49:22.703Z,29.8
2017-11-25T11:50:24.495Z,29.8
2017-11-25T11:51:22.804Z,29.7
2017-11-25T11:52:24.794Z,29.6
2017-11-25T11:53:24.588Z,29.5
2017-11-25T11:54:24.820Z,29.5
2017-11-25T11:55:24.911Z,29.4
2017-11-25T11:56:24.986Z,29.3
2017-11-25T11:57:23.149Z,29.2
2017-11-25T11:58:23.179Z,29.1
2017-11-25T11:59:24.958Z,29.1
2017-11-25T12:00:24.989Z,29.1
2017-11-25T12:01:23.298Z,29
2017-11-25T12:02:23.206Z,29.1
2017-11-25T12:03:25.168Z,29.1
2017-11-25T12:04:25.242Z,29.1
2017-11-25T12:05:23.530Z,29.1
2017-11-25T12:06:25.298Z,29.1
2017-11-25T12:07:23.614Z,29.1
2017-11-25T12:08:23.692Z,29
2017-11-25T12:09:25.637Z,29
2017-11-25T12:10:25.744Z,29
2017-11-25T12:11:23.861Z,29
2017-11-25T12:12:25.915Z,29
2017-11-25T12:13:24.001Z,29
2017-11-25T12:14:26.094Z,28.9
2017-11-25T12:15:24.152Z,28.9
2017-11-25T12:16:24.239Z,28.9
2017-11-25T12:17:24.089Z,28.9
2017-11-25T12:18:24.314Z,28.9
2017-11-25T12:19:24.194Z,28.9
2017-11-25T12:20:26.409Z,28.9
2017-11-25T12:21:24.552Z,28.9
2017-11-25T12:22:24.345Z,28.9
2017-11-25T12:23:24.576Z,28.9
2017-11-25T12:24:24.373Z,28.9
2017-11-25T12:25:26.293Z,28.9
2017-11-25T12:26:24.441Z,28.9
2017-11-25T12:27:24.516Z,28.9
2017-11-25T12:28:24.583Z,28.9
2017-11-25T12:29:24.788Z,28.9
2017-11-25T12:30:25.516Z,28.9
2017-11-25T12:31:26.843Z,28.9
2017-11-25T12:32:24.955Z,28.9
2017-11-25T12:33:26.996Z,28.9
2017-11-25T12:34:26.778Z,28.8
2017-11-25T12:35:27.102Z,28.8
2017-11-25T12:36:26.924Z,28.8
2017-11-25T12:37:25.188Z,28.8
2017-11-25T12:38:25.069Z,28.7
2017-11-25T12:39:27.193Z,28.7
2017-11-25T12:40:27.065Z,28.6
2017-11-25T12:41:25.156Z,28.5
2017-11-25T12:42:25.378Z,28.5
2017-11-25T12:43:27.421Z,28.4
2017-11-25T12:44:25.383Z,28.4
2017-11-25T12:45:25.405Z,28.4
2017-11-25T12:46:27.591Z,28.3
2017-11-25T12:47:25.764Z,28.2
2017-11-25T12:48:27.518Z,28.1
2017-11-25T12:49:25.874Z,27.9
2017-11-25T12:50:27.654Z,27.7
2017-11-25T12:51:27.917Z,27.7
2017-11-25T12:52:25.764Z,27.8
2017-11-25T12:53:27.740Z,27.9
2017-11-25T12:54:25.792Z,28
2017-11-25T12:55:27.751Z,28.2
2017-11-25T12:56:27.946Z,28.3
2017-11-25T12:57:26.046Z,28.4
2017-11-25T12:58:26.041Z,28.4
2017-11-25T12:59:28.072Z,28.5
2017-11-25T13:00:26.009Z,28.6
2017-11-25T13:01:26.247Z,28.7
2017-11-25T13:02:26.070Z,28.7
2017-11-25T13:03:28.046Z,28.8
2017-11-25T13:04:28.036Z,28.8
2017-11-25T13:05:26.357Z,28.9
2017-11-25T13:06:28.432Z,29
2017-11-25T13:07:28.177Z,29
2017-11-25T13:08:26.460Z,29.1
2017-11-25T13:09:28.508Z,29.1
2017-11-25T13:10:26.351Z,29.2
2017-11-25T13:11:28.292Z,29.2
2017-11-25T13:12:28.641Z,29.3
2017-11-25T13:13:28.703Z,29.3
2017-11-25T13:14:26.580Z,29.4
2017-11-25T13:15:28.538Z,29.4
2017-11-25T13:16:26.706Z,29.4
2017-11-25T13:17:28.839Z,29.5
2017-11-25T13:18:26.821Z,29.5
2017-11-25T13:19:29.062Z,29.6
2017-11-25T13:20:28.872Z,29.6